createdAt,value
2023-04-18T00:02:03.685Z,30.27
2023-04-18T00:04:31.086Z,30.90
2023-04-18T00:06:58.497Z,32.20
2023-04-18T00:09:25.859Z,31.10
2023-04-18T00:11:53.312Z,30.73
2023-04-18T00:14:20.745Z,33.80
2023-04-18T00:16:47.966Z,31.00
2023-04-18T00:19:15.624Z,30.50
2023-04-18T00:21:44.814Z,28.87
2023-04-18T00:24:12.417Z,30.47
2023-04-18T00:26:39.696Z,30.97
2023-04-18T00:29:06.894Z,30.27
2023-04-18T00:31:34.090Z,30.37
2023-04-18T00:34:01.188Z,32.57
2023-04-18T00:36:28.345Z,29.40
2023-04-18T00:38:55.566Z,28.37
2023-04-18T00:41:25.418Z,26.53
2023-04-18T00:43:52.541Z,29.13
2023-04-18T00:46:19.874Z,28.70
2023-04-18T00:48:47.409Z,30.93
2023-04-18T00:51:14.824Z,31.03
2023-04-18T00:53:42.494Z,31.53
2023-04-18T00:56:09.658Z,26.97
2023-04-18T00:58:36.890Z,28.87
2023-04-18T01:01:04.105Z,28.40
2023-04-18T01:03:31.352Z,28.13
2023-04-18T01:05:58.539Z,32.13
2023-04-18T01:08:26.169Z,30.47
2023-04-18T01:10:53.307Z,29.83
2023-04-18T01:13:21.122Z,25.70
2023-04-18T01:15:49.389Z,27.97
2023-04-18T01:18:16.891Z,29.40
2023-04-18T01:20:47.924Z,30.40
2023-04-18T01:23:15.543Z,28.73
2023-04-18T01:25:43.170Z,28.60
2023-04-18T01:28:10.475Z,30.17
2023-04-18T01:30:37.563Z,29.07
2023-04-18T01:33:05.618Z,30.10
2023-04-18T01:35:33.371Z,29.07
2023-04-18T01:38:00.631Z,30.73
2023-04-18T01:40:27.956Z,34.93
2023-04-18T01:42:55.211Z,33.93
2023-04-18T01:45:22.435Z,30.50
2023-04-18T01:47:49.594Z,33.67
2023-04-18T01:50:16.841Z,31.73
2023-04-18T01:52:44.029Z,30.47
2023-04-18T01:55:11.288Z,29.30
2023-04-18T01:57:38.520Z,29.33
2023-04-18T02:00:06.603Z,27.53
2023-04-18T02:02:34.057Z,29.50
2023-04-18T02:05:01.431Z,27.87
2023-04-18T02:07:28.633Z,25.30
2023-04-18T02:09:55.706Z,31.33
2023-04-18T02:12:22.843Z,30.77
2023-04-18T02:14:52.321Z,30.27
2023-04-18T02:17:21.374Z,30.33
2023-04-18T02:19:48.538Z,30.70
2023-04-18T02:22:15.726Z,29.27
2023-04-18T02:24:42.850Z,36.57
2023-04-18T02:27:10.952Z,33.77
2023-04-18T02:29:38.293Z,32.80
2023-04-18T02:32:05.634Z,34.17
2023-04-18T02:34:33.775Z,34.70
2023-04-18T02:37:00.958Z,36.53
2023-04-18T02:39:28.108Z,39.07
2023-04-18T02:41:55.310Z,35.10
2023-04-18T02:44:22.458Z,35.37
2023-04-18T02:46:49.594Z,31.97
2023-04-18T02:49:16.737Z,33.07
2023-04-18T02:51:43.865Z,36.03
2023-04-18T02:54:11.118Z,39.37
2023-04-18T02:56:40.084Z,37.47
2023-04-18T02:59:07.915Z,35.90
2023-04-18T03:01:35.262Z,33.27
2023-04-18T03:04:02.501Z,36.63
2023-04-18T03:06:29.649Z,37.33
2023-04-18T03:08:56.836Z,35.07
2023-04-18T03:11:24.030Z,35.03
2023-04-18T03:13:51.191Z,37.87
2023-04-18T03:16:18.671Z,35.37
2023-04-18T03:18:45.803Z,32.10
2023-04-18T03:21:12.918Z,34.13
2023-04-18T03:23:40.011Z,35.80
2023-04-18T03:26:07.795Z,35.40
2023-04-18T03:28:35.387Z,32.13
2023-04-18T03:31:02.640Z,36.80
2023-04-18T03:33:29.847Z,34.87
2023-04-18T03:35:57.005Z,31.03
2023-04-18T03:38:24.116Z,35.00
2023-04-18T03:40:51.357Z,33.33
2023-04-18T03:43:21.051Z,35.57
2023-04-18T03:45:48.510Z,30.40
2023-04-18T03:48:15.720Z,32.73
2023-04-18T03:50:42.924Z,32.33
2023-04-18T03:53:10.168Z,33.93
2023-04-18T03:55:37.425Z,35.60
2023-04-18T03:58:04.596Z,35.20
2023-04-18T04:00:31.795Z,35.60
2023-04-18T04:02:59.165Z,30.67
2023-04-18T04:05:26.437Z,28.73
2023-04-18T04:07:53.651Z,30.97
2023-04-18T04:10:20.869Z,30.63
2023-04-18T04:12:47.984Z,33.20
2023-04-18T04:15:15.154Z,32.70
2023-04-18T04:17:42.356Z,30.93
2023-04-18T04:20:09.771Z,28.83
2023-04-18T04:22:37.492Z,33.77
2023-04-18T04:25:05.199Z,31.97
2023-04-18T04:27:34.071Z,30.53
2023-04-18T04:30:02.527Z,29.70
2023-04-18T04:32:30.231Z,32.20
2023-04-18T04:34:57.385Z,32.03
2023-04-18T04:37:24.488Z,32.37
2023-04-18T04:39:52.295Z,29.97
2023-04-18T04:42:19.775Z,30.73
2023-04-18T04:44:47.255Z,29.57
2023-04-18T04:47:14.432Z,31.47
2023-04-18T04:49:41.523Z,31.63
2023-04-18T04:52:08.649Z,32.17
2023-04-18T04:54:35.812Z,32.53
2023-04-18T04:57:03.708Z,28.90
2023-04-18T04:59:31.450Z,30.67
2023-04-18T05:01:58.731Z,30.23
2023-04-18T05:04:26.118Z,29.90
2023-04-18T05:06:54.034Z,29.20
2023-04-18T05:09:21.281Z,32.43
2023-04-18T05:11:49.468Z,30.47
2023-04-18T05:14:17.721Z,28.10
2023-04-18T05:16:44.895Z,29.20
2023-04-18T05:19:12.027Z,27.60
2023-04-18T05:21:39.197Z,26.43
2023-04-18T05:24:06.358Z,29.97
2023-04-18T05:26:33.491Z,27.03
2023-04-18T05:29:00.798Z,27.30
2023-04-18T05:31:28.024Z,26.87
2023-04-18T05:33:55.226Z,27.70
2023-04-18T05:36:22.743Z,25.10
2023-04-18T05:38:49.891Z,26.97
2023-04-18T05:41:17.006Z,25.87
2023-04-18T05:43:48.451Z,26.60
2023-04-18T05:46:21.606Z,25.20
2023-04-18T05:48:48.734Z,25.53
2023-04-18T05:51:16.023Z,27.73
2023-04-18T05:53:43.114Z,29.23
2023-04-18T05:56:10.460Z,24.13
2023-04-18T05:58:37.582Z,26.77
2023-04-18T06:01:04.758Z,27.00
2023-04-18T06:03:32.152Z,24.40
2023-04-18T06:05:59.687Z,26.20
2023-04-18T06:08:26.901Z,25.00
2023-04-18T06:10:54.004Z,24.87
2023-04-18T06:13:21.203Z,23.43
2023-04-18T06:15:48.346Z,28.00
2023-04-18T06:18:15.477Z,26.07
2023-04-18T06:20:43.961Z,24.10
2023-04-18T06:23:11.089Z,25.43
2023-04-18T06:25:38.236Z,23.43
2023-04-18T06:28:05.494Z,27.67
2023-04-18T06:30:32.642Z,29.63
2023-04-18T06:32:59.893Z,26.30
2023-04-18T06:35:27.175Z,21.67
2023-04-18T06:37:54.323Z,24.10
2023-04-18T06:40:21.428Z,24.83
2023-04-18T06:42:48.546Z,21.97
2023-04-18T06:45:15.643Z,20.33
2023-04-18T06:47:42.797Z,22.97
2023-04-18T06:50:10.177Z,22.47
2023-04-18T06:52:40.585Z,21.13
2023-04-18T06:55:09.327Z,22.20
2023-04-18T06:57:36.510Z,22.17
2023-04-18T07:00:04.916Z,21.47
2023-04-18T07:02:32.396Z,21.27
2023-04-18T07:04:59.662Z,21.27
2023-04-18T07:07:26.779Z,18.43
2023-04-18T07:09:53.986Z,19.27
2023-04-18T07:12:21.534Z,20.43
2023-04-18T07:14:48.633Z,19.47
2023-04-18T07:17:15.924Z,20.03
2023-04-18T07:19:43.100Z,19.07
2023-04-18T07:22:10.498Z,19.60
2023-04-18T07:24:39.315Z,18.23
2023-04-18T07:27:07.056Z,18.67
2023-04-18T07:29:34.154Z,18.33
2023-04-18T07:32:01.318Z,17.47
2023-04-18T07:34:29.696Z,17.03
2023-04-18T07:37:00.655Z,15.07
2023-04-18T07:39:28.265Z,15.63
2023-04-18T07:41:55.436Z,18.17
2023-04-18T07:44:25.233Z,16.90
2023-04-18T07:46:52.533Z,17.70
2023-04-18T07:49:19.649Z,13.10
2023-04-18T07:51:46.759Z,15.07
2023-04-18T07:54:13.923Z,16.03
2023-04-18T07:56:41.090Z,15.27
2023-04-18T07:59:08.202Z,13.47
2023-04-18T08:01:35.433Z,14.97
2023-04-18T08:04:02.727Z,17.97
2023-04-18T08:06:30.312Z,15.43
2023-04-18T08:08:59.001Z,13.83
2023-04-18T08:11:26.227Z,15.47
2023-04-18T08:13:53.374Z,15.60
2023-04-18T08:16:21.181Z,14.70
2023-04-18T08:18:48.314Z,16.20
2023-04-18T08:21:15.437Z,17.23
2023-04-18T08:23:42.575Z,13.07
2023-04-18T08:26:09.757Z,13.23
2023-04-18T08:28:36.840Z,203.77
2023-04-18T08:31:03.969Z,1277.47
2023-04-18T08:33:31.109Z,1380.73
2023-04-18T08:35:58.216Z,190.57
2023-04-18T08:38:25.460Z,39.93
2023-04-18T08:40:52.580Z,363.73
2023-04-18T08:43:19.676Z,708.83
2023-04-18T08:45:48.373Z,220.90
2023-04-18T08:48:16.282Z,67.97
2023-04-18T08:50:43.630Z,15.00
2023-04-18T08:53:11.273Z,61.67
2023-04-18T08:55:38.790Z,231.37
2023-04-18T08:58:06.935Z,75.03
2023-04-18T09:00:35.198Z,38.73
2023-04-18T09:03:03.805Z,18.53
2023-04-18T09:05:31.274Z,12.03
2023-04-18T09:07:58.435Z,10.53
2023-04-18T09:10:36.561Z,127.20
2023-04-18T09:13:04.402Z,14.80
2023-04-18T09:15:31.884Z,9.83
2023-04-18T09:18:01.624Z,10.97
2023-04-18T09:20:37.254Z,10.60
2023-04-18T09:23:05.415Z,10.70
2023-04-18T09:25:42.599Z,10.80
2023-04-18T09:28:37.660Z,12.00
2023-04-18T09:31:12.947Z,11.97
2023-04-18T09:33:43.119Z,11.40
2023-04-18T09:36:20.818Z,12.40
2023-04-18T09:38:48.730Z,11.57
2023-04-18T09:41:19.910Z,13.00
2023-04-18T09:43:47.973Z,12.83
2023-04-18T09:46:17.469Z,12.20
2023-04-18T09:48:44.764Z,12.00
2023-04-18T09:51:14.733Z,11.33
2023-04-18T09:53:44.622Z,12.23
2023-04-18T09:56:31.922Z,11.87
2023-04-18T09:59:09.171Z,11.03
2023-04-18T10:01:36.567Z,9.67
2023-04-18T10:04:06.327Z,9.90
2023-04-18T10:06:35.206Z,9.60
2023-04-18T10:09:05.840Z,11.90
2023-04-18T10:11:33.042Z,10.32
2023-04-18T10:14:03.331Z,9.40
2023-04-18T10:16:32.119Z,10.85
2023-04-18T10:19:20.153Z,12.35
2023-04-18T10:21:57.125Z,11.20
2023-04-18T10:24:43.028Z,10.65
2023-04-18T10:27:10.175Z,12.83
2023-04-18T10:29:56.097Z,9.93
2023-04-18T10:32:23.895Z,12.43
2023-04-18T10:34:53.474Z,12.60
2023-04-18T10:37:20.719Z,11.87
2023-04-18T10:39:57.198Z,12.10
2023-04-18T10:42:44.712Z,12.43
2023-04-18T10:45:17.606Z,12.77
2023-04-18T10:47:44.872Z,13.40
2023-04-18T10:50:12.243Z,12.37
2023-04-18T10:52:39.500Z,13.10
2023-04-18T10:55:09.962Z,13.23
2023-04-18T10:57:47.233Z,13.40
2023-04-18T11:00:16.599Z,13.87
2023-04-18T11:02:51.313Z,13.23
2023-04-18T11:05:36.382Z,14.30
2023-04-18T11:08:04.433Z,12.90
2023-04-18T11:10:31.580Z,12.37
2023-04-18T11:13:04.556Z,11.70
2023-04-18T11:15:31.824Z,14.23
2023-04-18T11:18:05.297Z,13.33
2023-04-18T11:20:47.590Z,13.20
2023-04-18T11:23:20.968Z,13.67
2023-04-18T11:25:54.441Z,13.50
2023-04-18T11:28:22.160Z,12.13
2023-04-18T11:30:49.390Z,11.80
2023-04-18T11:33:16.790Z,11.67
2023-04-18T11:35:45.341Z,13.23
2023-04-18T11:38:16.476Z,12.60
2023-04-18T11:40:50.368Z,11.43
2023-04-18T11:43:24.512Z,13.73
2023-04-18T11:45:55.721Z,13.57
2023-04-18T11:48:23.102Z,13.33
2023-04-18T11:50:50.254Z,10.83
2023-04-18T11:53:32.770Z,14.03
2023-04-18T11:55:59.962Z,13.20
2023-04-18T11:58:36.935Z,13.83
2023-04-18T12:01:20.071Z,11.80
2023-04-18T12:04:03.134Z,12.50
2023-04-18T12:06:46.518Z,14.00
2023-04-18T12:09:17.759Z,12.67
2023-04-18T12:11:45.099Z,12.47
2023-04-18T12:14:24.708Z,13.03
2023-04-18T12:16:52.586Z,12.13
2023-04-18T12:19:23.496Z,11.13
2023-04-18T12:21:57.921Z,12.53
2023-04-18T12:24:25.214Z,13.60
2023-04-18T12:26:52.879Z,15.77
2023-04-18T12:29:20.054Z,11.17
2023-04-18T12:31:47.683Z,11.97
2023-04-18T12:34:15.054Z,12.83
2023-04-18T12:36:42.908Z,14.27
2023-04-18T12:39:10.424Z,10.67
2023-04-18T12:41:37.542Z,13.13
2023-04-18T12:44:04.983Z,12.83
2023-04-18T12:46:32.194Z,11.60
2023-04-18T12:48:59.364Z,12.10
2023-04-18T12:51:29.332Z,12.13
2023-04-18T12:53:56.470Z,11.00
2023-04-18T12:56:23.678Z,12.23
2023-04-18T12:58:50.869Z,12.52
2023-04-18T13:01:18.108Z,11.68
2023-04-18T13:03:53.463Z,10.80
2023-04-18T13:06:27.358Z,11.60
2023-04-18T13:08:54.558Z,10.57
2023-04-18T13:11:22.524Z,12.17
2023-04-18T13:13:49.755Z,12.27
2023-04-18T13:16:16.958Z,10.53
2023-04-18T13:18:44.124Z,10.55
2023-04-18T13:21:11.339Z,9.82
2023-04-18T13:23:38.447Z,11.75
2023-04-18T13:26:05.825Z,11.18
2023-04-18T13:28:33.533Z,10.20
2023-04-18T13:31:00.705Z,14.60
2023-04-18T13:33:27.852Z,11.00
2023-04-18T13:35:54.939Z,11.07
2023-04-18T13:38:22.042Z,11.88
2023-04-18T13:40:52.045Z,9.35
2023-04-18T13:43:25.341Z,10.93
2023-04-18T13:45:53.224Z,12.38
2023-04-18T13:48:20.427Z,8.88
2023-04-18T13:50:48.303Z,11.20
2023-04-18T13:53:16.221Z,11.05
2023-04-18T13:55:43.322Z,9.70
2023-04-18T13:58:10.696Z,9.70
2023-04-18T14:00:37.852Z,10.87
2023-04-18T14:03:05.206Z,11.60
2023-04-18T14:05:32.478Z,12.00
2023-04-18T14:08:02.472Z,9.27
2023-04-18T14:10:29.806Z,11.27
2023-04-18T14:12:56.991Z,10.33
2023-04-18T14:15:24.471Z,9.53
2023-04-18T14:17:51.687Z,9.80
2023-04-18T14:20:21.608Z,11.00
2023-04-18T14:22:53.128Z,11.23
2023-04-18T14:25:20.500Z,10.33
2023-04-18T14:27:48.653Z,9.50
2023-04-18T14:30:15.876Z,9.80
2023-04-18T14:32:43.241Z,13.20
2023-04-18T14:35:10.876Z,14.00
2023-04-18T14:37:37.968Z,10.17
2023-04-18T14:40:05.581Z,11.87
2023-04-18T14:42:32.729Z,11.63
2023-04-18T14:44:59.837Z,11.97
2023-04-18T14:47:31.619Z,11.57
2023-04-18T14:49:58.828Z,10.63
2023-04-18T14:52:25.973Z,12.20
2023-04-18T14:54:53.068Z,11.07
2023-04-18T14:57:20.395Z,12.17
2023-04-18T14:59:47.517Z,10.80
2023-04-18T15:02:14.732Z,15.70
2023-04-18T15:04:42.276Z,11.47
2023-04-18T15:07:09.494Z,16.03
2023-04-18T15:09:39.872Z,7.50
2023-04-18T15:12:07.333Z,13.93
2023-04-18T15:14:35.851Z,13.17
2023-04-18T15:17:03.223Z,11.60
2023-04-18T15:19:31.554Z,12.13
2023-04-18T15:21:58.919Z,13.17
2023-04-18T15:24:26.189Z,13.90
2023-04-18T15:26:53.441Z,12.60
2023-04-18T15:29:20.868Z,17.10
2023-04-18T15:31:48.035Z,14.53
2023-04-18T15:34:15.424Z,15.13
2023-04-18T15:36:42.815Z,14.33
2023-04-18T15:39:10.688Z,15.23
2023-04-18T15:41:38.164Z,14.87
2023-04-18T15:44:07.231Z,14.90
2023-04-18T15:46:35.238Z,14.37
2023-04-18T15:49:02.391Z,15.43
2023-04-18T15:51:30.384Z,13.90
2023-04-18T15:53:57.631Z,16.53
2023-04-18T15:56:26.875Z,15.37
2023-04-18T15:58:56.983Z,14.00
2023-04-18T16:01:24.095Z,15.27
2023-04-18T16:03:51.563Z,16.40
2023-04-18T16:06:23.403Z,16.37
2023-04-18T16:08:50.942Z,15.80
2023-04-18T16:11:18.885Z,19.20
2023-04-18T16:13:46.002Z,18.87
2023-04-18T16:16:13.163Z,16.43
2023-04-18T16:18:40.458Z,17.73
2023-04-18T16:21:07.559Z,14.67
2023-04-18T16:23:34.724Z,16.10
2023-04-18T16:26:01.847Z,17.47
2023-04-18T16:28:30.034Z,16.33
2023-04-18T16:30:57.228Z,14.00
2023-04-18T16:33:25.856Z,18.33
2023-04-18T16:35:53.250Z,17.83
2023-04-18T16:38:23.467Z,16.20
2023-04-18T16:40:50.705Z,18.20
2023-04-18T16:43:17.833Z,17.83
2023-04-18T16:45:44.975Z,15.13
2023-04-18T16:48:12.173Z,17.43
2023-04-18T16:50:39.630Z,17.27
2023-04-18T16:53:07.284Z,25.17
2023-04-18T16:55:34.483Z,18.07
2023-04-18T16:58:01.764Z,17.60
2023-04-18T17:00:28.877Z,15.57
2023-04-18T17:02:56.216Z,18.50
2023-04-18T17:05:23.883Z,17.90
2023-04-18T17:07:51.606Z,19.37
2023-04-18T17:10:19.263Z,16.20
2023-04-18T17:12:49.060Z,22.33
2023-04-18T17:15:19.495Z,20.17
2023-04-18T17:17:46.673Z,17.07
2023-04-18T17:20:14.078Z,20.20
2023-04-18T17:22:41.200Z,19.33
2023-04-18T17:25:08.578Z,21.23
2023-04-18T17:27:35.774Z,22.37
2023-04-18T17:30:02.938Z,20.67
2023-04-18T17:32:30.187Z,26.17
2023-04-18T17:34:57.407Z,22.10
2023-04-18T17:37:24.689Z,20.47
2023-04-18T17:39:51.818Z,21.73
2023-04-18T17:42:21.200Z,21.13
2023-04-18T17:44:48.411Z,23.27
2023-04-18T17:47:15.743Z,25.43
2023-04-18T17:49:42.861Z,23.73
2023-04-18T17:52:09.971Z,21.77
2023-04-18T17:54:37.077Z,22.20
2023-04-18T17:57:04.463Z,23.87
2023-04-18T17:59:37.435Z,23.17
2023-04-18T18:02:05.336Z,25.07
2023-04-18T18:04:32.657Z,25.13
2023-04-18T18:06:59.924Z,26.33
2023-04-18T18:09:27.064Z,23.13
2023-04-18T18:11:55.905Z,24.67
2023-04-18T18:14:23.482Z,22.93
2023-04-18T18:16:50.668Z,21.97
2023-04-18T18:19:17.813Z,24.63
2023-04-18T18:21:44.954Z,25.97
2023-04-18T18:24:12.532Z,21.30
2023-04-18T18:26:39.657Z,22.60
2023-04-18T18:29:11.053Z,21.33
2023-04-18T18:31:38.801Z,22.87
2023-04-18T18:34:06.303Z,19.53
2023-04-18T18:36:33.463Z,16.53
2023-04-18T18:39:00.715Z,20.13
2023-04-18T18:41:27.847Z,17.57
2023-04-18T18:43:55.000Z,18.13
2023-04-18T18:46:22.231Z,18.30
2023-04-18T18:48:49.815Z,15.50
2023-04-18T18:51:19.114Z,17.87
2023-04-18T18:53:46.964Z,19.50
2023-04-18T18:56:14.573Z,17.10
2023-04-18T18:58:43.706Z,19.80
2023-04-18T19:01:13.969Z,20.43
2023-04-18T19:03:41.205Z,18.33
2023-04-18T19:06:08.498Z,16.43
2023-04-18T19:08:35.803Z,18.30
2023-04-18T19:11:02.921Z,19.13
2023-04-18T19:13:30.025Z,17.30
2023-04-18T19:15:57.301Z,16.43
2023-04-18T19:18:24.555Z,32.23
2023-04-18T19:20:51.771Z,15.13
2023-04-18T19:23:19.407Z,15.30
2023-04-18T19:25:47.007Z,16.17
2023-04-18T19:28:14.448Z,16.87
2023-04-18T19:30:42.564Z,19.37
2023-04-18T19:33:10.036Z,16.60
2023-04-18T19:35:38.020Z,15.80
2023-04-18T19:38:05.274Z,17.37
2023-04-18T19:40:32.393Z,16.47
2023-04-18T19:42:59.634Z,15.67
2023-04-18T19:45:26.850Z,16.57
2023-04-18T19:47:54.215Z,17.27
2023-04-18T19:50:21.389Z,18.03
2023-04-18T19:52:48.475Z,16.77
2023-04-18T19:55:15.582Z,18.43
2023-04-18T19:57:42.846Z,16.17
2023-04-18T20:00:11.169Z,18.00
2023-04-18T20:02:38.470Z,14.60
2023-04-18T20:05:06.432Z,14.27
2023-04-18T20:07:34.011Z,16.43
2023-04-18T20:10:01.497Z,12.53
2023-04-18T20:12:28.847Z,15.20
2023-04-18T20:14:56.069Z,14.80
2023-04-18T20:17:23.243Z,17.93
2023-04-18T20:19:50.956Z,14.93
2023-04-18T20:22:18.271Z,14.13
2023-04-18T20:24:46.165Z,18.57
2023-04-18T20:27:13.344Z,14.83
2023-04-18T20:29:40.533Z,15.63
2023-04-18T20:32:07.711Z,16.23
2023-04-18T20:34:34.810Z,17.50
2023-04-18T20:37:01.903Z,15.13
2023-04-18T20:39:29.103Z,16.60
2023-04-18T20:41:57.810Z,15.20
2023-04-18T20:44:27.610Z,15.37
2023-04-18T20:46:54.798Z,14.93
2023-04-18T20:49:21.915Z,15.97
2023-04-18T20:51:49.022Z,15.90
2023-04-18T20:54:16.420Z,14.80
2023-04-18T20:56:43.778Z,16.67
2023-04-18T20:59:11.087Z,15.17
2023-04-18T21:01:38.253Z,16.63
2023-04-18T21:04:05.540Z,14.40
2023-04-18T21:06:32.915Z,14.20
2023-04-18T21:09:00.112Z,14.97
2023-04-18T21:11:27.238Z,14.27
2023-04-18T21:13:54.322Z,14.23
2023-04-18T21:16:21.508Z,14.70
2023-04-18T21:18:48.670Z,13.80
2023-04-18T21:21:15.862Z,15.17
2023-04-18T21:23:43.616Z,14.53
2023-04-18T21:26:12.188Z,14.37
2023-04-18T21:28:54.614Z,14.97
2023-04-18T21:31:21.834Z,15.83
2023-04-18T21:33:51.988Z,13.83
2023-04-18T21:36:19.124Z,14.20
2023-04-18T21:38:46.230Z,15.10
2023-04-18T21:41:19.657Z,14.77
2023-04-18T21:43:46.854Z,15.90
2023-04-18T21:46:14.075Z,17.67
2023-04-18T21:48:42.144Z,13.27
2023-04-18T21:51:09.855Z,14.30
2023-04-18T21:53:38.471Z,14.50
2023-04-18T21:56:05.875Z,15.27
2023-04-18T21:58:33.108Z,14.47
2023-04-18T22:01:00.726Z,15.80
2023-04-18T22:03:28.773Z,16.70
2023-04-18T22:05:59.452Z,14.20
2023-04-18T22:08:26.687Z,15.63
2023-04-18T22:10:58.140Z,14.33
2023-04-18T22:13:26.145Z,13.10
2023-04-18T22:15:53.289Z,13.67
2023-04-18T22:18:20.449Z,12.83
2023-04-18T22:20:47.552Z,13.27
2023-04-18T22:23:14.880Z,13.03
2023-04-18T22:25:42.059Z,15.17
2023-04-18T22:28:09.193Z,13.17
2023-04-18T22:30:36.322Z,15.17
2023-04-18T22:33:03.571Z,13.90
2023-04-18T22:35:30.890Z,15.17
2023-04-18T22:37:58.012Z,13.73
2023-04-18T22:40:25.493Z,12.30
2023-04-18T22:42:52.661Z,15.47
2023-04-18T22:45:20.179Z,16.60
2023-04-18T22:47:47.432Z,14.67
2023-04-18T22:50:15.258Z,15.83
2023-04-18T22:52:42.410Z,14.27
2023-04-18T22:55:09.829Z,14.83
2023-04-18T22:57:36.961Z,14.60
2023-04-18T23:00:06.282Z,15.67
2023-04-18T23:02:33.568Z,13.43
2023-04-18T23:05:02.416Z,14.40
2023-04-18T23:07:29.610Z,14.73
2023-04-18T23:09:56.764Z,13.33
2023-04-18T23:12:23.915Z,13.20
2023-04-18T23:14:51.111Z,13.07
2023-04-18T23:17:18.322Z,14.93
2023-04-18T23:19:45.492Z,13.10
2023-04-18T23:22:12.598Z,13.53
2023-04-18T23:24:39.683Z,15.17
2023-04-18T23:27:06.781Z,13.33
2023-04-18T23:29:39.034Z,14.57
2023-04-18T23:32:06.661Z,13.70
2023-04-18T23:34:33.863Z,14.07
2023-04-18T23:37:01.148Z,12.77
2023-04-18T23:39:28.369Z,14.53
2023-04-18T23:41:56.213Z,13.23
2023-04-18T23:44:23.480Z,13.70
2023-04-18T23:46:50.665Z,13.23
2023-04-18T23:49:17.954Z,12.93
2023-04-18T23:51:45.082Z,13.37
2023-04-18T23:54:12.250Z,13.27
2023-04-18T23:56:39.433Z,17.60
2023-04-18T23:59:06.544Z,15.80
